This is the latest recevied weather packets stored in our database for station/object K6HFP. If no packets are shown the sender has not sent any weather packets the latest 10 day(s).
| Time | Temp. | Humidity | Pressure | Rain* | Wind** | Luminosity | Snow |
|---|---|---|---|---|---|---|---|
| 1777707449 | 18.33° C | 60% | 1010.7 hPa | 0 mm | - | 0 W/m² | - |
| 1777707146 | 18.89° C | 59% | 1010.7 hPa | 0 mm | - | 0 W/m² | - |
| 1777706844 | 18.89° C | 59% | 1010.9 hPa | 0 mm | - | 0 W/m² | - |
| 1777706541 | 18.89° C | 60% | 1011 hPa | 0 mm | - | 0 W/m² | - |
| 1777706239 | 18.33° C | 61% | 1010.6 hPa | 0 mm | - | 0 W/m² | - |
| 1777705936 | 17.78° C | 63% | 1010.9 hPa | 0 mm | - | 0 W/m² | - |
| 1777705635 | 18.33° C | 62% | 1010.7 hPa | 0 mm | - | 0 W/m² | - |
| 1777705332 | 18.89° C | 61% | 1010.6 hPa | 0 mm | - | 0 W/m² | - |
| 1777705030 | 18.89° C | 62% | 1010.5 hPa | 0 mm | - | 0 W/m² | - |
| 1777704728 | 18.89° C | 61% | 1010.6 hPa | 0 mm | - | 0 W/m² | - |
| 1777704426 | 18.89° C | 59% | 1010.8 hPa | 0 mm | - | 0 W/m² | - |
| 1777704123 | 19.44° C | 58% | 1010.8 hPa | 0 mm | - | 0 W/m² | - |
| 1777703821 | 20° C | 57% | 1010.8 hPa | 0 mm | - | 0 W/m² | - |
| 1777703518 | 20° C | 56% | 1010.6 hPa | 0 mm | - | 0 W/m² | - |
| 1777703215 | 19.44° C | 58% | 1010.5 hPa | 0 mm | - | 0 W/m² | - |
| 1777702913 | 18.89° C | 60% | 1010.8 hPa | 0 mm | - | 0 W/m² | - |
| 1777702611 | 18.89° C | 61% | 1010.8 hPa | 0 mm | - | 0 W/m² | - |
| 1777702308 | 18.89° C | 61% | 1010.7 hPa | 0 mm | - | 0 W/m² | - |
| 1777702008 | 19.44° C | 60% | 1010.8 hPa | 0 mm | - | 0 W/m² | - |
| 1777701705 | 19.44° C | 57% | 1010.8 hPa | 0 mm | - | 0 W/m² | - |
| 1777701403 | 19.44° C | 56% | 1010.7 hPa | 0 mm | - | 0 W/m² | - |
| 1777701101 | 20° C | 55% | 1010.7 hPa | 0 mm | - | 0 W/m² | - |
| 1777700800 | 21.11° C | 53% | 1010.7 hPa | 0 mm | - | 0 W/m² | - |
| 1777700497 | 20.56° C | 53% | 1010.8 hPa | 0 mm | - | 0 W/m² | - |
| 1777700194 | 20.56° C | 53% | 1010.6 hPa | 0 mm | - | 0 W/m² | - |
* Rain latest hour (hover to see other rain measurements)
** Current wind speed in m/s (hover to see current wind gust speed)